Time;durP1;ratioP1;P1;durP2;ratioP2;P2;SDS_P1;SDS_P2;PMS_P1;PMS_P2;Temp;Humidity;BMP_temperature;BMP_pressure;BME280_temperature;BME280_humidity;BME280_pressure;Samples;Min_cycle;Max_cycle;Signal;HPM_P1;HPM_P2
2022/06/08 00:01:50;;;;;;;8.43;5.90;;;;;;;;;;5019314;28;20046;-78
2022/06/08 00:04:22;;;;;;;7.70;5.90;;;;;;;;;;5019916;28;20041;-78
2022/06/08 00:06:48;;;;;;;8.93;5.95;;;;;;;;;;5001012;28;20422;-79
2022/06/08 00:09:14;;;;;;;9.98;6.07;;;;;;;;;;4998374;28;20041;-78
2022/06/08 00:11:40;;;;;;;8.13;6.10;;;;;;;;;;4999556;28;20073;-79
2022/06/08 00:14:06;;;;;;;8.50;6.05;;;;;;;;;;5004873;28;20076;-78
2022/06/08 00:16:32;;;;;;;8.45;5.63;;;;;;;;;;5020016;28;20033;-78
2022/06/08 00:18:58;;;;;;;6.78;5.63;;;;;;;;;;5003478;28;20049;-79
2022/06/08 00:21:27;;;;;;;6.65;5.70;;;;;;;;;;5022972;28;20141;-78
2022/06/08 00:23:53;;;;;;;8.10;6.25;;;;;;;;;;5015684;28;20037;-79
2022/06/08 00:26:19;;;;;;;7.15;6.45;;;;;;;;;;5016593;28;20062;-79
2022/06/08 00:28:45;;;;;;;11.00;5.93;;;;;;;;;;5014941;28;20045;-78
2022/06/08 00:31:12;;;;;;;8.02;6.70;;;;;;;;;;5019384;28;20430;-78
2022/06/08 00:33:38;;;;;;;7.15;6.45;;;;;;;;;;5017036;28;20049;-78
2022/06/08 00:36:04;;;;;;;9.50;7.10;;;;;;;;;;5020533;28;20383;-79
2022/06/08 00:38:30;;;;;;;10.15;6.90;;;;;;;;;;5004057;28;20076;-79
2022/06/08 00:41:19;;;;;;;9.07;7.20;;;;;;;;;;5000191;28;20080;-79
2022/06/08 00:43:45;;;;;;;8.15;6.93;;;;;;;;;;4987078;28;20041;-78
2022/06/08 00:46:12;;;;;;;8.13;7.03;;;;;;;;;;5022673;28;20184;-78
2022/06/08 00:48:42;;;;;;;9.52;8.02;;;;;;;;;;5027049;28;20087;-78
2022/06/08 00:51:08;;;;;;;11.23;7.65;;;;;;;;;;5019203;28;20038;-78
2022/06/08 00:53:37;;;;;;;9.13;7.05;;;;;;;;;;4995692;28;20124;-78
2022/06/08 00:56:05;;;;;;;8.52;7.45;;;;;;;;;;5002234;28;20111;-78
2022/06/08 00:58:32;;;;;;;9.75;8.05;;;;;;;;;;5008662;28;20129;-78
2022/06/08 01:00:58;;;;;;;9.70;8.07;;;;;;;;;;5002615;28;20127;-78
2022/06/08 01:03:26;;;;;;;8.48;7.53;;;;;;;;;;5018809;28;20084;-78
2022/06/08 01:05:52;;;;;;;10.35;7.88;;;;;;;;;;5022698;28;20048;-78
2022/06/08 01:08:23;;;;;;;9.50;8.32;;;;;;;;;;5020016;28;20117;-78
2022/06/08 01:10:51;;;;;;;10.10;8.63;;;;;;;;;;5030362;28;20037;-78
2022/06/08 01:13:17;;;;;;;11.80;8.38;;;;;;;;;;5007352;28;20397;-78
2022/06/08 01:15:43;;;;;;;11.20;8.82;;;;;;;;;;5008546;28;20144;-78
2022/06/08 01:18:10;;;;;;;10.68;8.95;;;;;;;;;;5006769;28;20102;-78
2022/06/08 01:20:36;;;;;;;9.90;8.50;;;;;;;;;;5025083;28;20049;-78
2022/06/08 01:23:05;;;;;;;9.35;8.38;;;;;;;;;;5007682;28;20038;-78
2022/06/08 01:25:38;;;;;;;10.75;8.98;;;;;;;;;;5020235;28;20534;-78
2022/06/08 01:28:18;;;;;;;11.05;8.57;;;;;;;;;;5008756;28;20129;-78
2022/06/08 01:30:47;;;;;;;12.52;9.30;;;;;;;;;;5001228;28;20124;-79
2022/06/08 01:33:16;;;;;;;12.27;9.93;;;;;;;;;;5015424;28;20119;-78
2022/06/08 01:36:01;;;;;;;11.55;10.45;;;;;;;;;;5028879;28;20063;-78
2022/06/08 01:38:37;;;;;;;11.68;10.48;;;;;;;;;;5008636;28;20057;-78
2022/06/08 01:41:06;;;;;;;13.57;11.73;;;;;;;;;;5028317;28;20132;-78
2022/06/08 01:43:40;;;;;;;14.10;11.35;;;;;;;;;;5008841;28;20045;-78
2022/06/08 01:46:13;;;;;;;14.30;11.75;;;;;;;;;;5006125;28;20041;-78
2022/06/08 01:48:48;;;;;;;12.65;11.38;;;;;;;;;;5000140;28;20480;-78
2022/06/08 01:51:14;;;;;;;15.18;12.10;;;;;;;;;;5004489;28;20045;-78
2022/06/08 01:53:40;;;;;;;14.85;13.23;;;;;;;;;;5011245;28;20041;-78
2022/06/08 01:56:15;;;;;;;15.25;13.18;;;;;;;;;;5009437;28;20049;-78
2022/06/08 01:58:48;;;;;;;14.70;13.18;;;;;;;;;;5014766;28;20083;-78
2022/06/08 02:01:14;;;;;;;13.88;12.23;;;;;;;;;;5004284;28;20085;-78
2022/06/08 02:04:06;;;;;;;14.90;13.30;;;;;;;;;;5016994;28;20057;-78
2022/06/08 02:06:36;;;;;;;13.90;12.40;;;;;;;;;;5021854;28;20092;-78
2022/06/08 02:09:02;;;;;;;13.35;11.90;;;;;;;;;;5020336;28;20034;-78
2022/06/08 02:11:31;;;;;;;14.90;11.85;;;;;;;;;;5021957;28;20081;-78
2022/06/08 02:14:03;;;;;;;12.32;11.13;;;;;;;;;;5024543;28;20073;-78
2022/06/08 02:16:41;;;;;;;12.00;10.57;;;;;;;;;;5006711;28;20167;-78
2022/06/08 02:19:11;;;;;;;13.90;9.30;;;;;;;;;;5017525;28;20077;-78
2022/06/08 02:21:42;;;;;;;10.70;9.60;;;;;;;;;;5023692;28;20048;-78
2022/06/08 02:24:20;;;;;;;11.23;9.68;;;;;;;;;;5022863;28;20095;-78
2022/06/08 02:26:54;;;;;;;10.55;9.48;;;;;;;;;;5025877;28;20057;-78
2022/06/08 02:29:25;;;;;;;10.63;9.52;;;;;;;;;;5022146;28;20046;-78
2022/06/08 02:34:28;;;;;;;11.70;10.30;;;;;;;;;;5022398;28;20394;-78
2022/06/08 02:34:54;;;;;;;12.15;10.38;;;;;;;;;;5020321;28;20603;-79
2022/06/08 02:37:21;;;;;;;11.07;9.98;;;;;;;;;;5006999;28;20038;-78
2022/06/08 02:39:50;;;;;;;11.45;9.63;;;;;;;;;;5018379;28;20043;-79
2022/06/08 02:42:39;;;;;;;9.68;8.68;;;;;;;;;;5022689;28;20045;-78
2022/06/08 02:45:12;;;;;;;10.13;9.00;;;;;;;;;;5020409;28;20054;-78
2022/06/08 02:47:39;;;;;;;11.38;8.93;;;;;;;;;;5027584;28;20059;-78
2022/06/08 02:50:08;;;;;;;10.70;9.15;;;;;;;;;;5024732;28;20041;-78
2022/06/08 02:52:35;;;;;;;9.43;8.52;;;;;;;;;;5003856;28;20057;-78
2022/06/08 02:55:03;;;;;;;10.70;9.60;;;;;;;;;;5024506;28;20041;-78
2022/06/08 02:57:49;;;;;;;11.90;10.68;;;;;;;;;;5022308;28;20056;-78
2022/06/08 03:00:38;;;;;;;10.98;9.43;;;;;;;;;;5020087;28;20159;-78
2022/06/08 03:03:13;;;;;;;11.57;9.57;;;;;;;;;;5018900;28;20081;-78
2022/06/08 03:05:50;;;;;;;10.90;9.43;;;;;;;;;;4996989;28;20070;-78
2022/06/08 03:08:25;;;;;;;11.43;9.75;;;;;;;;;;4999620;28;20493;-78
2022/06/08 03:10:52;;;;;;;11.35;9.80;;;;;;;;;;5003029;28;20041;-77
2022/06/08 03:13:21;;;;;;;11.68;9.25;;;;;;;;;;5018580;28;20052;-78
2022/06/08 03:16:01;;;;;;;10.45;9.38;;;;;;;;;;5002565;28;20053;-78
2022/06/08 03:18:28;;;;;;;10.27;9.18;;;;;;;;;;4999514;28;20053;-78
2022/06/08 03:20:54;;;;;;;10.55;9.45;;;;;;;;;;5009623;28;20034;-77
2022/06/08 03:23:20;;;;;;;12.45;9.23;;;;;;;;;;5011897;28;20860;-78
2022/06/08 03:25:47;;;;;;;10.63;9.63;;;;;;;;;;5010799;28;20401;-78
2022/06/08 03:28:14;;;;;;;11.68;9.27;;;;;;;;;;5008298;28;20053;-77
2022/06/08 03:30:41;;;;;;;12.15;10.35;;;;;;;;;;5008620;28;20390;-77
2022/06/08 03:33:08;;;;;;;11.18;9.90;;;;;;;;;;5016953;28;20052;-78
2022/06/08 03:35:35;;;;;;;10.68;9.57;;;;;;;;;;4999187;28;20149;-78
2022/06/08 03:38:01;;;;;;;10.30;9.25;;;;;;;;;;5002508;28;20045;-78
2022/06/08 03:40:30;;;;;;;11.65;10.40;;;;;;;;;;5005398;28;20341;-78
2022/06/08 03:42:56;;;;;;;10.75;9.60;;;;;;;;;;5027335;28;20037;-78
2022/06/08 03:45:22;;;;;;;10.52;9.52;;;;;;;;;;5024099;28;20049;-78
2022/06/08 03:47:49;;;;;;;12.18;9.95;;;;;;;;;;5011208;28;20038;-78
2022/06/08 03:50:17;;;;;;;10.50;9.50;;;;;;;;;;5024143;28;20128;-78
2022/06/08 03:52:45;;;;;;;12.27;9.73;;;;;;;;;;4997600;28;20077;-78
2022/06/08 03:55:12;;;;;;;12.73;9.65;;;;;;;;;;5003938;28;20113;-77
2022/06/08 03:57:38;;;;;;;11.18;9.85;;;;;;;;;;5020289;28;20489;-77
2022/06/08 04:00:06;;;;;;;11.90;10.25;;;;;;;;;;5017000;28;20453;-77
2022/06/08 04:02:32;;;;;;;11.30;9.98;;;;;;;;;;4994469;28;20041;-77
2022/06/08 04:04:58;;;;;;;13.73;10.75;;;;;;;;;;4995529;28;20042;-77
2022/06/08 04:07:24;;;;;;;11.88;10.40;;;;;;;;;;5006374;28;20049;-77
2022/06/08 04:09:53;;;;;;;11.75;10.55;;;;;;;;;;5006657;28;20041;-78
2022/06/08 04:12:22;;;;;;;11.80;10.30;;;;;;;;;;5016424;28;20144;-77
2022/06/08 04:14:49;;;;;;;11.23;10.02;;;;;;;;;;5021212;28;20121;-77
2022/06/08 04:17:18;;;;;;;11.38;10.20;;;;;;;;;;5022481;28;20045;-78
2022/06/08 04:19:44;;;;;;;11.35;10.25;;;;;;;;;;5025779;28;20073;-78
2022/06/08 04:22:10;;;;;;;11.00;9.80;;;;;;;;;;4998554;28;20056;-78
2022/06/08 04:24:36;;;;;;;10.98;9.88;;;;;;;;;;5023544;28;20041;-78
2022/06/08 04:27:02;;;;;;;12.45;10.38;;;;;;;;;;5019666;28;20049;-78
2022/06/08 04:29:28;;;;;;;12.45;10.38;;;;;;;;;;4995700;28;20064;-77
2022/06/08 04:31:54;;;;;;;12.50;11.18;;;;;;;;;;5010278;28;20045;-78
2022/06/08 04:34:21;;;;;;;12.80;11.02;;;;;;;;;;5003779;28;20342;-77
2022/06/08 04:36:47;;;;;;;12.18;10.50;;;;;;;;;;5023270;28;20046;-77
2022/06/08 04:39:14;;;;;;;15.55;10.90;;;;;;;;;;5018455;28;20077;-78
2022/06/08 04:41:41;;;;;;;13.50;11.20;;;;;;;;;;5009488;28;20099;-78
2022/06/08 04:44:07;;;;;;;12.30;11.10;;;;;;;;;;5023313;28;20038;-78
2022/06/08 04:46:37;;;;;;;13.15;11.60;;;;;;;;;;5010410;28;20053;-78
2022/06/08 04:49:03;;;;;;;13.13;10.95;;;;;;;;;;5021587;28;20088;-78
2022/06/08 04:51:29;;;;;;;13.27;11.88;;;;;;;;;;5005459;28;20436;-77
2022/06/08 04:53:55;;;;;;;13.23;11.63;;;;;;;;;;5017200;28;20042;-78
2022/06/08 04:56:22;;;;;;;13.93;12.25;;;;;;;;;;5007700;28;20042;-78
2022/06/08 04:58:48;;;;;;;13.48;12.07;;;;;;;;;;5021367;28;20045;-78
2022/06/08 05:01:14;;;;;;;13.68;12.27;;;;;;;;;;5004773;28;20659;-78
2022/06/08 05:03:40;;;;;;;13.82;12.35;;;;;;;;;;4997372;28;20478;-77
2022/06/08 05:06:06;;;;;;;12.95;11.57;;;;;;;;;;5006142;28;20045;-78
2022/06/08 05:08:34;;;;;;;15.25;12.02;;;;;;;;;;5005434;28;20034;-78
2022/06/08 05:11:04;;;;;;;14.32;12.77;;;;;;;;;;5021139;28;20041;-78
2022/06/08 05:13:31;;;;;;;14.20;11.73;;;;;;;;;;5024662;28;20714;-78
2022/06/08 05:15:57;;;;;;;13.10;11.68;;;;;;;;;;5008688;28;20049;-77
2022/06/08 05:18:24;;;;;;;12.90;11.57;;;;;;;;;;5020451;28;20038;-77
2022/06/08 05:20:50;;;;;;;18.27;12.18;;;;;;;;;;5004879;28;20065;-78
2022/06/08 05:23:18;;;;;;;13.15;11.70;;;;;;;;;;5003297;28;20504;-78
2022/06/08 05:25:45;;;;;;;14.30;12.10;;;;;;;;;;5007811;28;20037;-78
2022/06/08 05:28:13;;;;;;;13.60;11.77;;;;;;;;;;5004659;28;20603;-77
2022/06/08 05:30:39;;;;;;;14.82;13.23;;;;;;;;;;5024861;28;22082;-77
2022/06/08 05:33:12;;;;;;;14.15;12.60;;;;;;;;;;5008292;28;20111;-78
2022/06/08 05:35:38;;;;;;;13.45;11.75;;;;;;;;;;5028143;28;20091;-78
2022/06/08 05:38:05;;;;;;;15.30;12.93;;;;;;;;;;5017740;28;20046;-77
2022/06/08 05:40:32;;;;;;;14.13;12.10;;;;;;;;;;5022388;28;20047;-77
2022/06/08 05:43:00;;;;;;;15.48;13.15;;;;;;;;;;5026989;28;20443;-78
2022/06/08 05:45:27;;;;;;;15.10;12.10;;;;;;;;;;5024434;28;20458;-78
2022/06/08 05:47:53;;;;;;;15.65;13.77;;;;;;;;;;5023106;28;20132;-79
2022/06/08 05:50:20;;;;;;;16.83;13.40;;;;;;;;;;5031481;28;20136;-79
2022/06/08 05:52:47;;;;;;;16.45;13.38;;;;;;;;;;5012507;28;20462;-79
2022/06/08 05:55:13;;;;;;;16.17;13.68;;;;;;;;;;5001404;28;20052;-79
2022/06/08 05:57:40;;;;;;;15.88;14.13;;;;;;;;;;5012368;28;20605;-79
2022/06/08 06:00:07;;;;;;;15.27;13.65;;;;;;;;;;5026080;28;20493;-79
2022/06/08 06:02:33;;;;;;;16.48;13.82;;;;;;;;;;5009344;28;20045;-79
2022/06/08 06:04:59;;;;;;;18.17;13.57;;;;;;;;;;5027837;28;20057;-79
2022/06/08 06:07:25;;;;;;;17.13;13.93;;;;;;;;;;5027801;28;20116;-79
2022/06/08 06:09:54;;;;;;;17.33;13.73;;;;;;;;;;5005421;28;20038;-79
2022/06/08 06:12:20;;;;;;;15.30;13.18;;;;;;;;;;5011661;28;20060;-79
2022/06/08 06:14:46;;;;;;;16.08;13.00;;;;;;;;;;5029085;28;20088;-79
2022/06/08 06:17:15;;;;;;;15.02;13.05;;;;;;;;;;5002393;28;21535;-79
2022/06/08 06:19:41;;;;;;;15.55;13.90;;;;;;;;;;5011263;28;20108;-79
2022/06/08 06:22:07;;;;;;;15.43;13.23;;;;;;;;;;5010002;28;20042;-79
2022/06/08 06:24:33;;;;;;;16.98;12.60;;;;;;;;;;5007905;28;20045;-79
2022/06/08 06:26:59;;;;;;;13.70;12.15;;;;;;;;;;5026600;28;20049;-79
2022/06/08 06:29:25;;;;;;;14.90;12.23;;;;;;;;;;5008466;28;20100;-79
2022/06/08 06:31:55;;;;;;;13.05;10.88;;;;;;;;;;5018844;28;20508;-79
2022/06/08 06:34:23;;;;;;;13.43;11.55;;;;;;;;;;5009118;28;20171;-80
2022/06/08 06:36:52;;;;;;;13.25;11.20;;;;;;;;;;5012094;28;20049;-79
2022/06/08 06:39:18;;;;;;;15.10;10.93;;;;;;;;;;5004167;28;20042;-79
2022/06/08 06:41:44;;;;;;;14.90;11.85;;;;;;;;;;5027748;28;20044;-79
2022/06/08 06:44:10;;;;;;;14.15;11.27;;;;;;;;;;5008568;28;20053;-80
2022/06/08 06:46:36;;;;;;;13.13;11.43;;;;;;;;;;5012644;28;20050;-79
2022/06/08 06:49:03;;;;;;;13.93;11.50;;;;;;;;;;5029584;28;20041;-79
2022/06/08 06:51:29;;;;;;;12.93;11.13;;;;;;;;;;5014120;28;20831;-79
2022/06/08 06:53:55;;;;;;;13.40;11.63;;;;;;;;;;5015599;28;20424;-79
2022/06/08 06:56:21;;;;;;;13.45;11.40;;;;;;;;;;5027694;28;20065;-79
2022/06/08 06:58:48;;;;;;;12.68;11.10;;;;;;;;;;5005580;28;20505;-80
2022/06/08 07:01:15;;;;;;;13.27;10.95;;;;;;;;;;5020488;28;20041;-79
2022/06/08 07:03:41;;;;;;;12.80;11.50;;;;;;;;;;5027684;28;20045;-79
2022/06/08 07:06:07;;;;;;;16.08;12.38;;;;;;;;;;5016004;28;20041;-79
2022/06/08 07:08:33;;;;;;;13.13;11.27;;;;;;;;;;5007032;28;20489;-80
2022/06/08 07:13:49;;;;;;;13.77;11.40;;;;;;;;;;5031100;28;20045;-80
2022/06/08 07:16:15;;;;;;;12.40;10.65;;;;;;;;;;5025894;28;20048;-79
2022/06/08 07:18:41;;;;;;;13.98;10.88;;;;;;;;;;5029795;28;20390;-79
2022/06/08 07:21:07;;;;;;;11.65;10.40;;;;;;;;;;5026319;28;20049;-79
2022/06/08 07:23:33;;;;;;;12.80;9.95;;;;;;;;;;5030739;28;20115;-80
2022/06/08 07:25:59;;;;;;;10.45;9.35;;;;;;;;;;5011707;28;20128;-79
2022/06/08 07:28:25;;;;;;;10.15;9.00;;;;;;;;;;5029831;28;20052;-80
2022/06/08 07:30:52;;;;;;;10.73;9.63;;;;;;;;;;5012167;28;20143;-79
2022/06/08 07:33:19;;;;;;;10.52;9.43;;;;;;;;;;5007592;28;20041;-79
2022/06/08 07:35:45;;;;;;;8.95;7.32;;;;;;;;;;5008662;28;20045;-80
2022/06/08 07:38:11;;;;;;;10.32;8.35;;;;;;;;;;5019201;28;20512;-79
2022/06/08 07:40:37;;;;;;;9.02;7.72;;;;;;;;;;5005871;28;20037;-79
2022/06/08 07:43:04;;;;;;;8.82;7.45;;;;;;;;;;5021150;28;20069;-79
2022/06/08 07:45:30;;;;;;;9.10;7.63;;;;;;;;;;5024051;28;20041;-79
2022/06/08 07:50:41;;;;;;;7.78;6.97;;;;;;;;;;5007697;28;20114;-80
2022/06/08 07:53:08;;;;;;;10.95;7.57;;;;;;;;;;4999860;28;20050;-80
2022/06/08 07:55:35;;;;;;;7.32;6.40;;;;;;;;;;5016425;28;20050;-79
2022/06/08 07:58:03;;;;;;;10.15;6.82;;;;;;;;;;5018844;28;20038;-79
2022/06/08 08:00:29;;;;;;;7.45;5.72;;;;;;;;;;5020762;28;20060;-80
2022/06/08 08:03:04;;;;;;;7.75;5.72;;;;;;;;;;5009224;28;20100;-80
2022/06/08 08:05:40;;;;;;;6.97;6.10;;;;;;;;;;5006218;28;20091;-80
2022/06/08 08:08:06;;;;;;;9.13;5.75;;;;;;;;;;5012109;28;20049;-80
2022/06/08 08:10:33;;;;;;;10.90;7.00;;;;;;;;;;5010754;28;20045;-80
2022/06/08 08:12:59;;;;;;;6.63;5.93;;;;;;;;;;5025015;28;20440;-80
2022/06/08 08:15:25;;;;;;;9.60;7.10;;;;;;;;;;5024827;28;20053;-79
2022/06/08 08:17:52;;;;;;;10.02;8.20;;;;;;;;;;5004045;28;20048;-80
2022/06/08 08:20:18;;;;;;;9.02;7.05;;;;;;;;;;5007228;28;20553;-79
2022/06/08 08:22:46;;;;;;;8.15;7.25;;;;;;;;;;5005099;28;20034;-80
2022/06/08 08:25:12;;;;;;;8.65;6.60;;;;;;;;;;5007117;28;20473;-80
2022/06/08 08:27:39;;;;;;;6.75;5.90;;;;;;;;;;5025608;28;20049;-80
2022/06/08 08:30:05;;;;;;;7.55;6.70;;;;;;;;;;5025826;28;20053;-80
2022/06/08 08:32:31;;;;;;;8.45;6.40;;;;;;;;;;5019608;28;20096;-80
2022/06/08 08:34:57;;;;;;;8.98;7.43;;;;;;;;;;5002906;28;20041;-80
2022/06/08 08:37:23;;;;;;;8.00;6.47;;;;;;;;;;5004529;28;20054;-79
2022/06/08 08:39:49;;;;;;;8.95;6.63;;;;;;;;;;5012144;28;20119;-79
2022/06/08 08:42:20;;;;;;;7.45;5.97;;;;;;;;;;5028007;28;20083;-80
2022/06/08 08:44:57;;;;;;;9.52;5.90;;;;;;;;;;5029994;28;20046;-80
2022/06/08 08:47:23;;;;;;;7.15;5.43;;;;;;;;;;5003738;28;20046;-79
2022/06/08 08:49:54;;;;;;;8.43;5.43;;;;;;;;;;5008676;28;20080;-79
2022/06/08 08:52:40;;;;;;;8.38;6.40;;;;;;;;;;5025226;28;20056;-79
2022/06/08 08:55:17;;;;;;;8.15;6.32;;;;;;;;;;5012432;28;20048;-80
2022/06/08 08:58:03;;;;;;;7.40;6.22;;;;;;;;;;5022208;28;20037;-79
2022/06/08 09:00:38;;;;;;;7.05;6.25;;;;;;;;;;5010250;28;20389;-80
2022/06/08 09:03:34;;;;;;;6.63;6.03;;;;;;;;;;5025029;28;20056;-79
2022/06/08 09:06:12;;;;;;;6.22;5.57;;;;;;;;;;5013006;28;20140;-80
2022/06/08 09:08:38;;;;;;;8.35;6.07;;;;;;;;;;4999634;28;20044;-79
2022/06/08 09:11:09;;;;;;;7.63;5.75;;;;;;;;;;5002618;28;20567;-80
2022/06/08 09:13:53;;;;;;;6.80;5.97;;;;;;;;;;5001855;28;20072;-79
2022/06/08 09:16:39;;;;;;;9.20;6.50;;;;;;;;;;5025359;28;20143;-79
2022/06/08 09:19:25;;;;;;;7.82;5.80;;;;;;;;;;5011604;28;20038;-80
2022/06/08 09:21:53;;;;;;;6.88;5.53;;;;;;;;;;5027300;28;20037;-79
2022/06/08 09:24:26;;;;;;;7.65;5.68;;;;;;;;;;5002792;28;20103;-79
2022/06/08 09:26:55;;;;;;;6.68;5.78;;;;;;;;;;5009623;28;20061;-80
2022/06/08 09:29:23;;;;;;;12.90;6.28;;;;;;;;;;5007401;28;20057;-80
2022/06/08 09:31:50;;;;;;;8.40;5.50;;;;;;;;;;5003230;28;20049;-80
2022/06/08 09:34:22;;;;;;;5.88;5.28;;;;;;;;;;5024775;28;20055;-80
2022/06/08 09:37:07;;;;;;;8.60;5.18;;;;;;;;;;5022427;28;20349;-80
2022/06/08 09:39:33;;;;;;;5.13;4.63;;;;;;;;;;5023394;28;20049;-80
2022/06/08 09:42:00;;;;;;;6.25;5.15;;;;;;;;;;5023722;28;20595;-80
2022/06/08 09:44:32;;;;;;;8.73;6.03;;;;;;;;;;5001235;28;20049;-80
2022/06/08 09:52:59;;;;;;;7.63;6.25;;;;;;;;;;5003521;28;20513;-80
2022/06/08 09:55:35;;;;;;;5.68;5.05;;;;;;;;;;5008694;28;20080;-80
2022/06/08 09:58:08;;;;;;;7.82;6.18;;;;;;;;;;5008261;28;20038;-80
2022/06/08 10:00:41;;;;;;;7.45;5.85;;;;;;;;;;4997684;28;20057;-80
2022/06/08 10:03:13;;;;;;;7.32;5.80;;;;;;;;;;5008638;28;20084;-80
2022/06/08 10:05:55;;;;;;;6.70;6.00;;;;;;;;;;5004150;28;20445;-80
2022/06/08 10:08:24;;;;;;;7.15;5.78;;;;;;;;;;5025474;28;20090;-80
2022/06/08 10:11:34;;;;;;;7.28;5.50;;;;;;;;;;5011475;28;20056;-80
2022/06/08 10:13:56;;;;;;;6.05;5.13;;;;;;;;;;5011278;28;20088;-80
2022/06/08 10:16:24;;;;;;;4.93;4.43;;;;;;;;;;5026844;28;20494;-80
2022/06/08 10:18:53;;;;;;;6.22;4.80;;;;;;;;;;5011945;28;20057;-80
2022/06/08 10:21:21;;;;;;;6.90;5.13;;;;;;;;;;5006147;28;20056;-80
2022/06/08 10:24:05;;;;;;;6.28;4.95;;;;;;;;;;5010453;28;20045;-80
2022/06/08 10:26:37;;;;;;;6.55;4.70;;;;;;;;;;5001141;28;20075;-79
2022/06/08 10:29:03;;;;;;;5.68;4.38;;;;;;;;;;5007873;28;20042;-80
2022/06/08 10:31:39;;;;;;;5.18;3.80;;;;;;;;;;5029181;28;20060;-80
2022/06/08 10:34:04;;;;;;;6.53;5.05;;;;;;;;;;5020759;28;20050;-80
2022/06/08 10:36:31;;;;;;;7.65;5.85;;;;;;;;;;5004484;28;20030;-80
2022/06/08 10:38:59;;;;;;;7.22;5.53;;;;;;;;;;5020592;28;20401;-80
2022/06/08 10:44:34;;;;;;;7.00;5.80;;;;;;;;;;5020731;28;20049;-80
2022/06/08 10:47:23;;;;;;;5.68;4.85;;;;;;;;;;5007243;28;20072;-80
2022/06/08 10:50:09;;;;;;;5.57;4.82;;;;;;;;;;5011241;28;20052;-80
2022/06/08 10:52:47;;;;;;;7.13;5.68;;;;;;;;;;5018853;28;20034;-80
2022/06/08 10:55:17;;;;;;;7.20;5.55;;;;;;;;;;5004297;28;20485;-79
2022/06/08 10:57:49;;;;;;;6.15;4.80;;;;;;;;;;5021364;28;20048;-80
2022/06/08 11:00:21;;;;;;;5.90;5.17;;;;;;;;;;5009211;28;20065;-80
2022/06/08 11:02:47;;;;;;;6.73;6.03;;;;;;;;;;5011913;28;20414;-80
2022/06/08 11:05:18;;;;;;;7.07;6.00;;;;;;;;;;5021093;28;20053;-79
2022/06/08 11:08:12;;;;;;;6.75;6.07;;;;;;;;;;5012813;28;20044;-80
2022/06/08 11:10:44;;;;;;;6.80;6.10;;;;;;;;;;5008081;28;20056;-79
2022/06/08 11:13:23;;;;;;;7.57;6.80;;;;;;;;;;5010957;28;20115;-79
2022/06/08 11:16:10;;;;;;;7.65;6.20;;;;;;;;;;5030021;28;20077;-80
2022/06/08 11:18:36;;;;;;;9.45;6.70;;;;;;;;;;5007194;28;20041;-80
2022/06/08 11:21:02;;;;;;;8.38;7.05;;;;;;;;;;5010158;28;20095;-80
2022/06/08 11:23:34;;;;;;;7.78;6.93;;;;;;;;;;5033523;28;20045;-80
2022/06/08 11:26:23;;;;;;;8.98;7.40;;;;;;;;;;5011794;28;20167;-79
2022/06/08 11:29:08;;;;;;;7.75;6.95;;;;;;;;;;5003244;28;20480;-80
2022/06/08 11:31:34;;;;;;;7.68;6.97;;;;;;;;;;5006027;28;20045;-80
2022/06/08 11:34:19;;;;;;;7.53;6.82;;;;;;;;;;5022945;28;20071;-80
2022/06/08 11:36:48;;;;;;;8.65;7.80;;;;;;;;;;5005595;28;20157;-80
2022/06/08 11:39:20;;;;;;;8.18;7.20;;;;;;;;;;5004139;28;20049;-80
2022/06/08 11:41:56;;;;;;;8.50;7.67;;;;;;;;;;5010583;28;20393;-80
2022/06/08 11:44:22;;;;;;;9.63;8.32;;;;;;;;;;5026475;28;20095;-79
2022/06/08 11:46:51;;;;;;;8.88;7.72;;;;;;;;;;5010301;28;20049;-79
2022/06/08 11:49:29;;;;;;;9.70;7.65;;;;;;;;;;5019318;28;20417;-80
2022/06/08 11:51:55;;;;;;;9.70;8.73;;;;;;;;;;5020504;28;20056;-79
2022/06/08 11:54:21;;;;;;;9.55;8.65;;;;;;;;;;5004023;28;20033;-79
2022/06/08 11:56:57;;;;;;;9.82;8.82;;;;;;;;;;5006773;28;20107;-79
2022/06/08 11:59:23;;;;;;;8.68;7.85;;;;;;;;;;5025460;28;20109;-80
2022/06/08 12:01:51;;;;;;;10.02;7.78;;;;;;;;;;5010217;28;20509;-80
2022/06/08 12:04:20;;;;;;;8.75;7.85;;;;;;;;;;5021632;28;20045;-80
2022/06/08 12:06:47;;;;;;;7.43;6.72;;;;;;;;;;5007707;28;20048;-80
2022/06/08 12:09:22;;;;;;;9.10;7.55;;;;;;;;;;4999828;28;20526;-80
2022/06/08 12:11:50;;;;;;;7.88;7.18;;;;;;;;;;5005984;28;20412;-80
2022/06/08 12:14:16;;;;;;;8.45;7.60;;;;;;;;;;5023264;28;20526;-80
2022/06/08 12:16:53;;;;;;;9.00;8.20;;;;;;;;;;5022958;28;20037;-80
2022/06/08 12:19:20;;;;;;;9.07;6.43;;;;;;;;;;5007630;28;20138;-79
2022/06/08 12:21:48;;;;;;;7.68;5.18;;;;;;;;;;5027137;28;20057;-80
2022/06/08 12:24:14;;;;;;;10.07;5.35;;;;;;;;;;5003967;28;20156;-80
2022/06/08 12:26:46;;;;;;;10.65;8.35;;;;;;;;;;5010023;28;20500;-80
2022/06/08 12:29:27;;;;;;;13.82;9.18;;;;;;;;;;5019824;28;20064;-81
2022/06/08 12:32:00;;;;;;;10.23;8.80;;;;;;;;;;5010866;28;20124;-80
2022/06/08 12:34:27;;;;;;;12.38;9.80;;;;;;;;;;5022562;28;20046;-79
2022/06/08 12:36:53;;;;;;;14.00;9.23;;;;;;;;;;5012081;28;20502;-80
2022/06/08 12:39:25;;;;;;;9.93;5.55;;;;;;;;;;5002320;28;20183;-80
2022/06/08 12:41:54;;;;;;;10.65;6.85;;;;;;;;;;5027006;28;20033;-80
2022/06/08 12:44:21;;;;;;;7.75;4.85;;;;;;;;;;5020104;28;20053;-80
2022/06/08 12:46:50;;;;;;;3.92;2.72;;;;;;;;;;5012651;28;20124;-80
2022/06/08 12:49:16;;;;;;;2.85;2.17;;;;;;;;;;5019036;28;20126;-80
2022/06/08 12:51:48;;;;;;;2.75;2.00;;;;;;;;;;5007199;28;20485;-81
2022/06/08 12:54:19;;;;;;;5.60;2.55;;;;;;;;;;5000877;28;20060;-81
2022/06/08 12:56:46;;;;;;;4.70;2.40;;;;;;;;;;5000225;28;20037;-81
2022/06/08 12:59:13;;;;;;;4.03;2.40;;;;;;;;;;5006439;28;20048;-80
2022/06/08 13:01:40;;;;;;;2.40;2.00;;;;;;;;;;5024653;28;20042;-81
2022/06/08 13:04:06;;;;;;;5.63;2.30;;;;;;;;;;5023662;28;20096;-79
2022/06/08 13:06:32;;;;;;;3.58;2.22;;;;;;;;;;5009208;28;20041;-80
2022/06/08 13:08:59;;;;;;;3.95;2.10;;;;;;;;;;5007807;28;20378;-80
2022/06/08 13:11:26;;;;;;;3.72;2.13;;;;;;;;;;5019688;28;20386;-80
2022/06/08 13:13:55;;;;;;;3.45;2.17;;;;;;;;;;5010868;28;20049;-80
2022/06/08 13:16:26;;;;;;;3.90;2.30;;;;;;;;;;5022327;28;20129;-79
2022/06/08 13:18:53;;;;;;;3.55;1.92;;;;;;;;;;5027822;28;20041;-79
2022/06/08 13:21:19;;;;;;;3.80;2.15;;;;;;;;;;5024920;28;20057;-80
2022/06/08 13:23:46;;;;;;;2.85;2.40;;;;;;;;;;5009745;28;20072;-80
2022/06/08 13:26:14;;;;;;;4.35;2.50;;;;;;;;;;5003306;28;20454;-80
2022/06/08 13:28:41;;;;;;;3.35;2.78;;;;;;;;;;5026053;28;20046;-80
2022/06/08 13:31:09;;;;;;;4.63;2.60;;;;;;;;;;5026448;28;20045;-80
2022/06/08 13:36:40;;;;;;;4.07;2.60;;;;;;;;;;5011107;28;20041;-80
2022/06/08 13:39:08;;;;;;;3.65;2.72;;;;;;;;;;5027891;28;20049;-80
2022/06/08 13:41:35;;;;;;;4.57;3.13;;;;;;;;;;5027311;28;20045;-80
2022/06/08 13:44:01;;;;;;;5.05;3.10;;;;;;;;;;5026186;28;20081;-80
2022/06/08 13:46:31;;;;;;;6.30;3.30;;;;;;;;;;5029112;28;20149;-80
2022/06/08 13:48:58;;;;;;;3.72;3.30;;;;;;;;;;5013172;28;20095;-80
2022/06/08 13:51:28;;;;;;;3.67;3.17;;;;;;;;;;5012618;28;20132;-80
2022/06/08 13:53:54;;;;;;;3.70;3.40;;;;;;;;;;5005843;28;20050;-80
2022/06/08 13:56:21;;;;;;;3.95;3.42;;;;;;;;;;5026679;28;20053;-79
2022/06/08 13:58:48;;;;;;;4.97;3.60;;;;;;;;;;5027606;28;20033;-80
2022/06/08 14:01:17;;;;;;;4.72;3.25;;;;;;;;;;5026741;28;20037;-80
2022/06/08 14:03:43;;;;;;;5.82;4.03;;;;;;;;;;5024747;28;20103;-80
2022/06/08 14:14:26;;;;;;;6.50;3.95;;;;;;;;;;5028893;28;20187;-79
2022/06/08 14:16:54;;;;;;;5.55;4.13;;;;;;;;;;5013202;28;20124;-80
2022/06/08 14:19:23;;;;;;;7.07;4.78;;;;;;;;;;5025385;28;20054;-80
2022/06/08 14:21:51;;;;;;;6.93;4.90;;;;;;;;;;5027482;28;20057;-80
2022/06/08 14:24:23;;;;;;;7.65;4.90;;;;;;;;;;5031797;28;20127;-80
2022/06/08 14:26:49;;;;;;;5.75;4.63;;;;;;;;;;5002295;28;20046;-80
2022/06/08 14:29:15;;;;;;;5.90;5.05;;;;;;;;;;5027534;28;21653;-80
2022/06/08 14:31:43;;;;;;;5.97;5.20;;;;;;;;;;5002044;28;20038;-79
2022/06/08 14:34:21;;;;;;;7.13;5.07;;;;;;;;;;5009113;28;20048;-80
2022/06/08 14:36:49;;;;;;;7.40;5.40;;;;;;;;;;5028453;28;20374;-80
2022/06/08 14:39:16;;;;;;;6.63;4.93;;;;;;;;;;4998656;28;20049;-80
2022/06/08 14:41:43;;;;;;;5.63;5.07;;;;;;;;;;5011159;28;20048;-80
2022/06/08 14:44:12;;;;;;;7.05;5.30;;;;;;;;;;5007268;28;20041;-79
2022/06/08 14:46:40;;;;;;;6.03;4.97;;;;;;;;;;5020035;28;20496;-80
2022/06/08 14:49:09;;;;;;;5.03;4.00;;;;;;;;;;5026678;28;20049;-80
2022/06/08 14:51:35;;;;;;;3.90;3.60;;;;;;;;;;5005167;28;20116;-80
2022/06/08 14:54:01;;;;;;;5.00;3.67;;;;;;;;;;5009864;28;20152;-80
2022/06/08 14:56:27;;;;;;;4.10;3.80;;;;;;;;;;5011850;28;20045;-80
2022/06/08 14:58:54;;;;;;;4.13;3.72;;;;;;;;;;5013475;28;20045;-80
2022/06/08 15:01:22;;;;;;;6.22;4.38;;;;;;;;;;5024495;28;20582;-79
2022/06/08 15:03:48;;;;;;;4.47;3.70;;;;;;;;;;5012420;28;20092;-80
2022/06/08 15:06:15;;;;;;;4.43;4.03;;;;;;;;;;5012173;28;20124;-80
2022/06/08 15:08:41;;;;;;;4.80;4.22;;;;;;;;;;5015722;28;20048;-80
2022/06/08 15:14:21;;;;;;;7.18;5.13;;;;;;;;;;5025491;28;20450;-80
2022/06/08 15:16:47;;;;;;;6.18;5.57;;;;;;;;;;5027620;28;20509;-80